PROFILE

 METAR AND TAF INFORMATION
ADDS - METARS form results

(1204 UTC 15 May 2021)
http://aviationweather.gov/metar/data/
 
LFRS 151200Z AUTO 25016KT 230V290 9999 BKN023 BKN032 OVC074 15/11 Q1007 TEMPO 25015G25KT 4500 SHRA SCT025CB BKN030TCU
LFRS 151130Z AUTO 27009KT 230V290 9999 BKN022/// BKN033/// OVC049/// ///TCU 14/11 Q1007 TEMPO 25015G25KT 4500 SHRA SCT025CB BKN030TCU
TAF LFRS 151100Z 1512/1618 23010KT 9999 BKN020 TEMPO 1512/1518 25015G25KT TEMPO 1512/1520 4500 SHRA SCT025CB BKN030TCU TEMPO 1520/1603 3000 -RA BKN008 TEMPO 1603/1618 4000 SHRA BKN025CB TEMPO 1609/1618 24020G35KT 

 AIRPORT MAP

 RUNWAY INFORMATION
Runway 03 Runway length 9514 ft Runway width 148 ft
Runway elevation 73 ft Runway displaced threshold 0 ft Runway heading 28
Runway 21 Runway length 9514 ft Runway width 148 ft
Runway elevation 86 ft Runway displaced threshold 694 ft Runway heading 208

 AIRPORT FREQUENCIES
Type APP Name APP Frequency 130.275 MHZ
Type ATIS Name ATIS Frequency 126.925 MHZ
Type GND Name GND Frequency 121.875 MHZ
Type INFO Name INFO Frequency 129.875 MHZ
Type TWR Name TWR Frequency 118.65 MHZ

 AIRPORT NEAR NAVIGATION AIDS
Type NDB Name Nantes Frequency 369 KHZ
Type VOR-DME Name Nantes Frequency 115500 KHZ